sensor_id;sensor_type;location;lat;lon;timestamp;P1;durP1;ratioP1;P2;durP2;ratioP2
7001;SDS011;3541;53.230;10.518;2023-01-08T00:00:03;2.80;;;2.50;;
7001;SDS011;3541;53.230;10.518;2023-01-08T00:02:31;3.00;;;2.70;;
7001;SDS011;3541;53.230;10.518;2023-01-08T00:04:58;3.90;;;2.93;;
7001;SDS011;3541;53.230;10.518;2023-01-08T00:07:24;3.00;;;2.70;;
7001;SDS011;3541;53.230;10.518;2023-01-08T00:09:51;3.20;;;2.83;;
7001;SDS011;3541;53.230;10.518;2023-01-08T00:12:18;3.53;;;2.83;;
7001;SDS011;3541;53.230;10.518;2023-01-08T00:14:46;3.73;;;3.07;;
7001;SDS011;3541;53.230;10.518;2023-01-08T00:17:13;3.50;;;3.00;;
7001;SDS011;3541;53.230;10.518;2023-01-08T00:19:39;4.20;;;2.57;;
7001;SDS011;3541;53.230;10.518;2023-01-08T00:22:07;4.70;;;2.70;;
7001;SDS011;3541;53.230;10.518;2023-01-08T00:24:33;3.10;;;2.60;;
7001;SDS011;3541;53.230;10.518;2023-01-08T00:27:00;5.70;;;3.27;;
7001;SDS011;3541;53.230;10.518;2023-01-08T00:29:26;4.27;;;2.70;;
7001;SDS011;3541;53.230;10.518;2023-01-08T00:31:54;3.63;;;2.80;;
7001;SDS011;3541;53.230;10.518;2023-01-08T00:34:21;3.63;;;2.63;;
7001;SDS011;3541;53.230;10.518;2023-01-08T00:36:48;3.37;;;2.80;;
7001;SDS011;3541;53.230;10.518;2023-01-08T00:39:14;2.60;;;2.40;;
7001;SDS011;3541;53.230;10.518;2023-01-08T00:41:41;3.27;;;2.30;;
7001;SDS011;3541;53.230;10.518;2023-01-08T00:44:09;6.53;;;2.93;;
7001;SDS011;3541;53.230;10.518;2023-01-08T00:46:35;3.57;;;2.70;;
7001;SDS011;3541;53.230;10.518;2023-01-08T00:49:03;3.43;;;2.57;;
7001;SDS011;3541;53.230;10.518;2023-01-08T00:51:30;3.63;;;2.60;;
7001;SDS011;3541;53.230;10.518;2023-01-08T00:53:56;2.80;;;2.60;;
7001;SDS011;3541;53.230;10.518;2023-01-08T00:56:23;3.77;;;2.80;;
7001;SDS011;3541;53.230;10.518;2023-01-08T00:58:50;5.30;;;2.70;;
7001;SDS011;3541;53.230;10.518;2023-01-08T01:01:16;3.33;;;2.73;;
7001;SDS011;3541;53.230;10.518;2023-01-08T01:03:43;2.97;;;2.30;;
7001;SDS011;3541;53.230;10.518;2023-01-08T01:06:11;2.70;;;2.37;;
7001;SDS011;3541;53.230;10.518;2023-01-08T01:08:38;4.53;;;2.67;;
7001;SDS011;3541;53.230;10.518;2023-01-08T01:11:06;3.33;;;2.70;;
7001;SDS011;3541;53.230;10.518;2023-01-08T01:13:33;3.23;;;2.73;;
7001;SDS011;3541;53.230;10.518;2023-01-08T01:16:00;3.13;;;2.50;;
7001;SDS011;3541;53.230;10.518;2023-01-08T01:18:27;4.13;;;2.90;;
7001;SDS011;3541;53.230;10.518;2023-01-08T01:20:55;2.63;;;2.43;;
7001;SDS011;3541;53.230;10.518;2023-01-08T01:23:23;4.33;;;2.77;;
7001;SDS011;3541;53.230;10.518;2023-01-08T01:25:49;3.57;;;2.90;;
7001;SDS011;3541;53.230;10.518;2023-01-08T01:28:16;3.47;;;2.60;;
7001;SDS011;3541;53.230;10.518;2023-01-08T01:30:43;3.10;;;2.80;;
7001;SDS011;3541;53.230;10.518;2023-01-08T01:33:09;2.50;;;2.30;;
7001;SDS011;3541;53.230;10.518;2023-01-08T01:35:36;4.13;;;2.70;;
7001;SDS011;3541;53.230;10.518;2023-01-08T01:38:02;3.10;;;2.80;;
7001;SDS011;3541;53.230;10.518;2023-01-08T01:40:30;5.27;;;2.63;;
7001;SDS011;3541;53.230;10.518;2023-01-08T01:42:57;4.93;;;2.87;;
7001;SDS011;3541;53.230;10.518;2023-01-08T01:45:24;3.33;;;2.67;;
7001;SDS011;3541;53.230;10.518;2023-01-08T01:47:53;3.40;;;2.90;;
7001;SDS011;3541;53.230;10.518;2023-01-08T01:50:24;3.73;;;2.80;;
7001;SDS011;3541;53.230;10.518;2023-01-08T01:52:54;3.73;;;3.00;;
7001;SDS011;3541;53.230;10.518;2023-01-08T01:55:26;3.70;;;3.17;;
7001;SDS011;3541;53.230;10.518;2023-01-08T01:57:57;3.17;;;2.87;;
7001;SDS011;3541;53.230;10.518;2023-01-08T02:00:27;4.13;;;2.83;;
7001;SDS011;3541;53.230;10.518;2023-01-08T02:02:55;4.23;;;2.97;;
7001;SDS011;3541;53.230;10.518;2023-01-08T02:05:22;3.23;;;2.87;;
7001;SDS011;3541;53.230;10.518;2023-01-08T02:07:54;3.10;;;2.80;;
7001;SDS011;3541;53.230;10.518;2023-01-08T02:10:28;3.43;;;2.63;;
7001;SDS011;3541;53.230;10.518;2023-01-08T02:13:03;3.40;;;2.80;;
7001;SDS011;3541;53.230;10.518;2023-01-08T02:15:33;3.43;;;2.80;;
7001;SDS011;3541;53.230;10.518;2023-01-08T02:18:08;3.00;;;2.70;;
7001;SDS011;3541;53.230;10.518;2023-01-08T02:20:41;3.37;;;2.67;;
7001;SDS011;3541;53.230;10.518;2023-01-08T02:23:13;3.83;;;2.67;;
7001;SDS011;3541;53.230;10.518;2023-01-08T02:26:01;3.40;;;2.63;;
7001;SDS011;3541;53.230;10.518;2023-01-08T02:28:39;2.70;;;2.30;;
7001;SDS011;3541;53.230;10.518;2023-01-08T02:31:07;3.73;;;2.70;;
7001;SDS011;3541;53.230;10.518;2023-01-08T02:33:34;3.73;;;3.10;;
7001;SDS011;3541;53.230;10.518;2023-01-08T02:36:14;3.00;;;2.70;;
7001;SDS011;3541;53.230;10.518;2023-01-08T02:38:49;3.37;;;3.00;;
7001;SDS011;3541;53.230;10.518;2023-01-08T02:41:30;3.53;;;2.60;;
7001;SDS011;3541;53.230;10.518;2023-01-08T02:44:05;5.20;;;2.73;;
7001;SDS011;3541;53.230;10.518;2023-01-08T02:46:34;5.07;;;2.80;;
7001;SDS011;3541;53.230;10.518;2023-01-08T02:49:06;5.70;;;2.83;;
7001;SDS011;3541;53.230;10.518;2023-01-08T02:51:36;2.90;;;2.70;;
7001;SDS011;3541;53.230;10.518;2023-01-08T02:54:07;3.10;;;2.60;;
7001;SDS011;3541;53.230;10.518;2023-01-08T02:56:40;3.13;;;2.50;;
7001;SDS011;3541;53.230;10.518;2023-01-08T02:59:11;3.53;;;2.77;;
7001;SDS011;3541;53.230;10.518;2023-01-08T03:01:40;3.23;;;2.67;;
7001;SDS011;3541;53.230;10.518;2023-01-08T03:04:09;3.73;;;3.00;;
7001;SDS011;3541;53.230;10.518;2023-01-08T03:06:39;3.00;;;2.67;;
7001;SDS011;3541;53.230;10.518;2023-01-08T03:09:06;3.97;;;2.50;;
7001;SDS011;3541;53.230;10.518;2023-01-08T03:11:35;2.97;;;2.67;;
7001;SDS011;3541;53.230;10.518;2023-01-08T03:14:06;4.93;;;2.87;;
7001;SDS011;3541;53.230;10.518;2023-01-08T03:16:37;4.73;;;2.90;;
7001;SDS011;3541;53.230;10.518;2023-01-08T03:19:07;3.33;;;2.57;;
7001;SDS011;3541;53.230;10.518;2023-01-08T03:21:37;4.87;;;2.63;;
7001;SDS011;3541;53.230;10.518;2023-01-08T03:24:06;2.97;;;2.63;;
7001;SDS011;3541;53.230;10.518;2023-01-08T03:26:37;4.97;;;2.60;;
7001;SDS011;3541;53.230;10.518;2023-01-08T03:29:07;3.57;;;2.73;;
7001;SDS011;3541;53.230;10.518;2023-01-08T03:31:36;3.20;;;2.77;;
7001;SDS011;3541;53.230;10.518;2023-01-08T03:34:05;5.10;;;3.07;;
7001;SDS011;3541;53.230;10.518;2023-01-08T03:36:33;4.27;;;3.20;;
7001;SDS011;3541;53.230;10.518;2023-01-08T03:39:04;4.50;;;3.00;;
7001;SDS011;3541;53.230;10.518;2023-01-08T03:41:35;3.53;;;2.80;;
7001;SDS011;3541;53.230;10.518;2023-01-08T03:44:02;3.00;;;2.70;;
7001;SDS011;3541;53.230;10.518;2023-01-08T03:46:31;3.63;;;2.53;;
7001;SDS011;3541;53.230;10.518;2023-01-08T03:49:02;3.10;;;2.70;;
7001;SDS011;3541;53.230;10.518;2023-01-08T03:51:37;3.97;;;2.80;;
7001;SDS011;3541;53.230;10.518;2023-01-08T03:54:05;3.87;;;3.03;;
7001;SDS011;3541;53.230;10.518;2023-01-08T03:56:36;2.67;;;2.43;;
7001;SDS011;3541;53.230;10.518;2023-01-08T03:59:02;4.07;;;3.00;;
7001;SDS011;3541;53.230;10.518;2023-01-08T04:01:30;3.43;;;3.10;;
7001;SDS011;3541;53.230;10.518;2023-01-08T04:03:57;3.03;;;2.73;;
7001;SDS011;3541;53.230;10.518;2023-01-08T04:06:24;3.17;;;2.60;;
7001;SDS011;3541;53.230;10.518;2023-01-08T04:08:50;3.97;;;3.13;;
7001;SDS011;3541;53.230;10.518;2023-01-08T04:11:17;3.27;;;2.90;;
7001;SDS011;3541;53.230;10.518;2023-01-08T04:13:44;3.03;;;2.67;;
7001;SDS011;3541;53.230;10.518;2023-01-08T04:16:10;3.03;;;2.73;;
7001;SDS011;3541;53.230;10.518;2023-01-08T04:18:38;3.70;;;3.03;;
7001;SDS011;3541;53.230;10.518;2023-01-08T04:21:05;4.30;;;2.83;;
7001;SDS011;3541;53.230;10.518;2023-01-08T04:23:32;3.43;;;2.73;;
7001;SDS011;3541;53.230;10.518;2023-01-08T04:25:59;3.27;;;2.83;;
7001;SDS011;3541;53.230;10.518;2023-01-08T04:28:29;4.20;;;2.97;;
7001;SDS011;3541;53.230;10.518;2023-01-08T04:30:55;3.63;;;2.60;;
7001;SDS011;3541;53.230;10.518;2023-01-08T04:33:22;3.40;;;2.73;;
7001;SDS011;3541;53.230;10.518;2023-01-08T04:35:50;5.37;;;2.90;;
7001;SDS011;3541;53.230;10.518;2023-01-08T04:38:17;4.40;;;3.00;;
7001;SDS011;3541;53.230;10.518;2023-01-08T04:40:43;3.27;;;2.60;;
7001;SDS011;3541;53.230;10.518;2023-01-08T04:43:10;3.27;;;2.57;;
7001;SDS011;3541;53.230;10.518;2023-01-08T04:45:37;2.80;;;2.57;;
7001;SDS011;3541;53.230;10.518;2023-01-08T04:48:04;4.60;;;2.67;;
7001;SDS011;3541;53.230;10.518;2023-01-08T04:50:30;4.53;;;2.77;;
7001;SDS011;3541;53.230;10.518;2023-01-08T04:52:58;3.00;;;2.70;;
7001;SDS011;3541;53.230;10.518;2023-01-08T04:55:25;4.67;;;2.87;;
7001;SDS011;3541;53.230;10.518;2023-01-08T04:57:52;4.50;;;2.60;;
7001;SDS011;3541;53.230;10.518;2023-01-08T05:00:18;4.90;;;2.97;;
7001;SDS011;3541;53.230;10.518;2023-01-08T05:02:45;4.43;;;3.40;;
7001;SDS011;3541;53.230;10.518;2023-01-08T05:05:12;3.10;;;2.80;;
7001;SDS011;3541;53.230;10.518;2023-01-08T05:07:38;3.70;;;3.07;;
7001;SDS011;3541;53.230;10.518;2023-01-08T05:10:07;4.83;;;2.77;;
7001;SDS011;3541;53.230;10.518;2023-01-08T05:12:34;3.73;;;2.80;;
7001;SDS011;3541;53.230;10.518;2023-01-08T05:15:01;3.43;;;2.80;;
7001;SDS011;3541;53.230;10.518;2023-01-08T05:17:27;3.20;;;2.77;;
7001;SDS011;3541;53.230;10.518;2023-01-08T05:19:54;4.30;;;2.53;;
7001;SDS011;3541;53.230;10.518;2023-01-08T05:22:20;3.20;;;2.90;;
7001;SDS011;3541;53.230;10.518;2023-01-08T05:24:47;3.20;;;2.90;;
7001;SDS011;3541;53.230;10.518;2023-01-08T05:27:15;3.50;;;2.77;;
7001;SDS011;3541;53.230;10.518;2023-01-08T05:29:41;4.43;;;3.00;;
7001;SDS011;3541;53.230;10.518;2023-01-08T05:32:08;4.10;;;3.10;;
7001;SDS011;3541;53.230;10.518;2023-01-08T05:34:40;3.40;;;2.83;;
7001;SDS011;3541;53.230;10.518;2023-01-08T05:37:06;3.10;;;2.80;;
7001;SDS011;3541;53.230;10.518;2023-01-08T05:39:33;3.60;;;2.90;;
7001;SDS011;3541;53.230;10.518;2023-01-08T05:42:01;4.90;;;2.80;;
7001;SDS011;3541;53.230;10.518;2023-01-08T05:44:29;4.40;;;3.13;;
7001;SDS011;3541;53.230;10.518;2023-01-08T05:46:55;4.57;;;2.90;;
7001;SDS011;3541;53.230;10.518;2023-01-08T05:49:22;3.93;;;3.27;;
7001;SDS011;3541;53.230;10.518;2023-01-08T05:51:49;4.27;;;3.20;;
7001;SDS011;3541;53.230;10.518;2023-01-08T05:54:15;4.23;;;2.90;;
7001;SDS011;3541;53.230;10.518;2023-01-08T05:56:42;3.30;;;2.83;;
7001;SDS011;3541;53.230;10.518;2023-01-08T05:59:09;4.70;;;3.57;;
7001;SDS011;3541;53.230;10.518;2023-01-08T06:01:37;4.23;;;3.20;;
7001;SDS011;3541;53.230;10.518;2023-01-08T06:04:04;3.73;;;2.93;;
7001;SDS011;3541;53.230;10.518;2023-01-08T06:06:30;3.53;;;2.90;;
7001;SDS011;3541;53.230;10.518;2023-01-08T06:08:57;3.73;;;3.13;;
7001;SDS011;3541;53.230;10.518;2023-01-08T06:11:23;4.00;;;2.87;;
7001;SDS011;3541;53.230;10.518;2023-01-08T06:13:50;3.50;;;3.20;;
7001;SDS011;3541;53.230;10.518;2023-01-08T06:16:17;4.60;;;3.33;;
7001;SDS011;3541;53.230;10.518;2023-01-08T06:18:46;3.47;;;3.10;;
7001;SDS011;3541;53.230;10.518;2023-01-08T06:21:12;5.90;;;3.77;;
7001;SDS011;3541;53.230;10.518;2023-01-08T06:23:39;4.67;;;3.10;;
7001;SDS011;3541;53.230;10.518;2023-01-08T06:26:06;4.27;;;2.97;;
7001;SDS011;3541;53.230;10.518;2023-01-08T06:28:33;4.67;;;3.03;;
7001;SDS011;3541;53.230;10.518;2023-01-08T06:31:00;3.57;;;3.00;;
7001;SDS011;3541;53.230;10.518;2023-01-08T06:33:28;4.00;;;3.23;;
7001;SDS011;3541;53.230;10.518;2023-01-08T06:35:59;4.40;;;3.13;;
7001;SDS011;3541;53.230;10.518;2023-01-08T06:38:29;3.00;;;2.63;;
7001;SDS011;3541;53.230;10.518;2023-01-08T06:40:56;4.20;;;3.07;;
7001;SDS011;3541;53.230;10.518;2023-01-08T06:43:23;4.70;;;3.40;;
7001;SDS011;3541;53.230;10.518;2023-01-08T06:45:51;4.57;;;3.53;;
7001;SDS011;3541;53.230;10.518;2023-01-08T06:48:18;6.70;;;4.50;;
7001;SDS011;3541;53.230;10.518;2023-01-08T06:50:45;5.97;;;4.00;;
7001;SDS011;3541;53.230;10.518;2023-01-08T06:53:13;8.60;;;4.43;;
7001;SDS011;3541;53.230;10.518;2023-01-08T06:55:40;4.53;;;3.57;;
7001;SDS011;3541;53.230;10.518;2023-01-08T06:58:08;5.47;;;4.10;;
7001;SDS011;3541;53.230;10.518;2023-01-08T07:00:37;5.53;;;3.10;;
7001;SDS011;3541;53.230;10.518;2023-01-08T07:03:04;3.70;;;3.40;;
7001;SDS011;3541;53.230;10.518;2023-01-08T07:05:31;6.33;;;4.50;;
7001;SDS011;3541;53.230;10.518;2023-01-08T07:07:57;3.90;;;3.50;;
7001;SDS011;3541;53.230;10.518;2023-01-08T07:10:25;4.30;;;3.27;;
7001;SDS011;3541;53.230;10.518;2023-01-08T07:12:52;5.90;;;3.67;;
7001;SDS011;3541;53.230;10.518;2023-01-08T07:15:18;4.93;;;3.33;;
7001;SDS011;3541;53.230;10.518;2023-01-08T07:17:45;3.80;;;2.90;;
7001;SDS011;3541;53.230;10.518;2023-01-08T07:20:11;4.53;;;3.27;;
7001;SDS011;3541;53.230;10.518;2023-01-08T07:22:38;4.97;;;3.27;;
7001;SDS011;3541;53.230;10.518;2023-01-08T07:25:05;4.17;;;3.47;;
7001;SDS011;3541;53.230;10.518;2023-01-08T07:27:34;4.60;;;3.63;;
7001;SDS011;3541;53.230;10.518;2023-01-08T07:30:01;6.60;;;3.50;;
7001;SDS011;3541;53.230;10.518;2023-01-08T07:32:27;3.93;;;3.23;;
7001;SDS011;3541;53.230;10.518;2023-01-08T07:34:54;4.47;;;3.00;;
7001;SDS011;3541;53.230;10.518;2023-01-08T07:37:23;4.67;;;3.37;;
7001;SDS011;3541;53.230;10.518;2023-01-08T07:39:49;4.10;;;3.67;;
7001;SDS011;3541;53.230;10.518;2023-01-08T07:42:17;3.77;;;3.40;;
7001;SDS011;3541;53.230;10.518;2023-01-08T07:44:44;4.53;;;3.27;;
7001;SDS011;3541;53.230;10.518;2023-01-08T07:47:11;3.50;;;2.93;;
7001;SDS011;3541;53.230;10.518;2023-01-08T07:49:38;4.27;;;3.83;;
7001;SDS011;3541;53.230;10.518;2023-01-08T07:52:04;7.87;;;5.20;;
7001;SDS011;3541;53.230;10.518;2023-01-08T07:54:31;5.57;;;3.77;;
7001;SDS011;3541;53.230;10.518;2023-01-08T07:56:57;3.87;;;3.00;;
7001;SDS011;3541;53.230;10.518;2023-01-08T07:59:24;6.20;;;3.50;;
7001;SDS011;3541;53.230;10.518;2023-01-08T08:01:52;4.60;;;3.97;;
7001;SDS011;3541;53.230;10.518;2023-01-08T08:04:18;3.87;;;3.40;;
7001;SDS011;3541;53.230;10.518;2023-01-08T08:06:45;5.60;;;3.87;;
7001;SDS011;3541;53.230;10.518;2023-01-08T08:09:12;4.97;;;3.27;;
7001;SDS011;3541;53.230;10.518;2023-01-08T08:11:38;4.77;;;3.50;;
7001;SDS011;3541;53.230;10.518;2023-01-08T08:14:05;3.93;;;3.40;;
7001;SDS011;3541;53.230;10.518;2023-01-08T08:16:31;3.60;;;3.27;;
7001;SDS011;3541;53.230;10.518;2023-01-08T08:19:00;5.17;;;3.60;;
7001;SDS011;3541;53.230;10.518;2023-01-08T08:21:26;5.10;;;3.83;;
7001;SDS011;3541;53.230;10.518;2023-01-08T08:23:53;4.20;;;3.50;;
7001;SDS011;3541;53.230;10.518;2023-01-08T08:26:20;5.07;;;4.00;;
7001;SDS011;3541;53.230;10.518;2023-01-08T08:28:47;4.93;;;3.63;;
7001;SDS011;3541;53.230;10.518;2023-01-08T08:31:13;4.60;;;3.60;;
7001;SDS011;3541;53.230;10.518;2023-01-08T08:33:40;3.70;;;3.40;;
7001;SDS011;3541;53.230;10.518;2023-01-08T08:36:08;5.83;;;3.30;;
7001;SDS011;3541;53.230;10.518;2023-01-08T08:38:35;5.20;;;3.60;;
7001;SDS011;3541;53.230;10.518;2023-01-08T08:41:02;6.03;;;4.03;;
7001;SDS011;3541;53.230;10.518;2023-01-08T08:43:29;6.40;;;3.70;;
7001;SDS011;3541;53.230;10.518;2023-01-08T08:45:55;4.93;;;3.80;;
7001;SDS011;3541;53.230;10.518;2023-01-08T08:48:22;4.23;;;3.73;;
7001;SDS011;3541;53.230;10.518;2023-01-08T08:50:49;5.73;;;4.37;;
7001;SDS011;3541;53.230;10.518;2023-01-08T08:53:17;5.70;;;4.37;;
7001;SDS011;3541;53.230;10.518;2023-01-08T08:55:43;6.60;;;4.10;;
7001;SDS011;3541;53.230;10.518;2023-01-08T08:58:11;6.00;;;4.30;;
7001;SDS011;3541;53.230;10.518;2023-01-08T09:00:38;6.17;;;4.43;;
7001;SDS011;3541;53.230;10.518;2023-01-08T09:03:08;5.57;;;4.80;;
7001;SDS011;3541;53.230;10.518;2023-01-08T09:05:37;6.33;;;4.40;;
7001;SDS011;3541;53.230;10.518;2023-01-08T09:08:03;6.43;;;4.03;;
7001;SDS011;3541;53.230;10.518;2023-01-08T09:10:31;5.03;;;3.80;;
7001;SDS011;3541;53.230;10.518;2023-01-08T09:12:58;5.43;;;4.30;;
7001;SDS011;3541;53.230;10.518;2023-01-08T09:15:25;5.70;;;4.23;;
7001;SDS011;3541;53.230;10.518;2023-01-08T09:17:52;6.60;;;4.40;;
7001;SDS011;3541;53.230;10.518;2023-01-08T09:20:19;4.57;;;4.00;;
7001;SDS011;3541;53.230;10.518;2023-01-08T09:22:46;5.13;;;3.87;;
7001;SDS011;3541;53.230;10.518;2023-01-08T09:25:13;5.53;;;4.00;;
7001;SDS011;3541;53.230;10.518;2023-01-08T09:27:41;6.63;;;3.73;;
7001;SDS011;3541;53.230;10.518;2023-01-08T09:30:08;11.97;;;6.43;;
7001;SDS011;3541;53.230;10.518;2023-01-08T09:32:35;5.77;;;4.50;;
7001;SDS011;3541;53.230;10.518;2023-01-08T09:35:02;5.57;;;4.10;;
7001;SDS011;3541;53.230;10.518;2023-01-08T09:37:29;4.43;;;3.77;;
7001;SDS011;3541;53.230;10.518;2023-01-08T09:39:56;6.97;;;5.40;;
7001;SDS011;3541;53.230;10.518;2023-01-08T09:42:23;5.80;;;4.77;;
7001;SDS011;3541;53.230;10.518;2023-01-08T09:44:54;7.03;;;5.00;;
7001;SDS011;3541;53.230;10.518;2023-01-08T09:47:24;6.53;;;4.47;;
7001;SDS011;3541;53.230;10.518;2023-01-08T09:49:53;5.10;;;4.60;;
7001;SDS011;3541;53.230;10.518;2023-01-08T09:52:22;7.37;;;4.10;;
7001;SDS011;3541;53.230;10.518;2023-01-08T09:54:49;7.77;;;5.00;;
7001;SDS011;3541;53.230;10.518;2023-01-08T09:57:16;7.70;;;5.73;;
7001;SDS011;3541;53.230;10.518;2023-01-08T09:59:44;8.87;;;5.60;;
7001;SDS011;3541;53.230;10.518;2023-01-08T10:02:14;6.83;;;5.27;;
7001;SDS011;3541;53.230;10.518;2023-01-08T10:04:42;7.80;;;5.07;;
7001;SDS011;3541;53.230;10.518;2023-01-08T10:07:10;5.50;;;4.33;;
7001;SDS011;3541;53.230;10.518;2023-01-08T10:09:42;5.20;;;4.20;;
7001;SDS011;3541;53.230;10.518;2023-01-08T10:12:09;5.47;;;4.00;;
7001;SDS011;3541;53.230;10.518;2023-01-08T10:14:39;4.97;;;4.07;;
7001;SDS011;3541;53.230;10.518;2023-01-08T10:17:14;5.80;;;3.80;;
7001;SDS011;3541;53.230;10.518;2023-01-08T10:19:48;5.00;;;4.00;;
7001;SDS011;3541;53.230;10.518;2023-01-08T10:22:15;5.10;;;4.10;;
7001;SDS011;3541;53.230;10.518;2023-01-08T10:24:44;6.13;;;3.90;;
7001;SDS011;3541;53.230;10.518;2023-01-08T10:27:12;5.97;;;4.80;;
7001;SDS011;3541;53.230;10.518;2023-01-08T10:29:40;4.83;;;3.83;;
7001;SDS011;3541;53.230;10.518;2023-01-08T10:32:07;5.33;;;4.47;;
7001;SDS011;3541;53.230;10.518;2023-01-08T10:34:40;5.63;;;3.87;;
7001;SDS011;3541;53.230;10.518;2023-01-08T10:37:14;7.07;;;4.87;;
7001;SDS011;3541;53.230;10.518;2023-01-08T10:39:51;5.90;;;4.37;;
7001;SDS011;3541;53.230;10.518;2023-01-08T10:42:20;5.43;;;4.37;;
7001;SDS011;3541;53.230;10.518;2023-01-08T10:44:56;5.87;;;4.07;;
7001;SDS011;3541;53.230;10.518;2023-01-08T10:47:25;6.27;;;4.47;;
7001;SDS011;3541;53.230;10.518;2023-01-08T10:49:54;7.10;;;4.93;;
7001;SDS011;3541;53.230;10.518;2023-01-08T10:52:23;5.20;;;3.67;;
7001;SDS011;3541;53.230;10.518;2023-01-08T10:54:51;4.67;;;3.77;;
7001;SDS011;3541;53.230;10.518;2023-01-08T10:57:20;4.20;;;3.40;;
7001;SDS011;3541;53.230;10.518;2023-01-08T10:59:48;4.70;;;3.50;;
7001;SDS011;3541;53.230;10.518;2023-01-08T11:02:17;5.30;;;3.73;;
7001;SDS011;3541;53.230;10.518;2023-01-08T11:04:47;3.80;;;3.30;;
7001;SDS011;3541;53.230;10.518;2023-01-08T11:07:19;5.27;;;3.23;;
7001;SDS011;3541;53.230;10.518;2023-01-08T11:09:48;4.90;;;3.53;;
7001;SDS011;3541;53.230;10.518;2023-01-08T11:14:53;3.20;;;2.90;;
7001;SDS011;3541;53.230;10.518;2023-01-08T11:17:19;3.00;;;2.70;;
7001;SDS011;3541;53.230;10.518;2023-01-08T11:19:49;3.13;;;2.83;;
7001;SDS011;3541;53.230;10.518;2023-01-08T11:22:19;5.23;;;3.40;;
7001;SDS011;3541;53.230;10.518;2023-01-08T11:24:47;6.23;;;3.67;;
7001;SDS011;3541;53.230;10.518;2023-01-08T11:27:15;4.23;;;3.00;;
7001;SDS011;3541;53.230;10.518;2023-01-08T11:29:48;3.10;;;2.77;;
7001;SDS011;3541;53.230;10.518;2023-01-08T11:32:33;3.37;;;3.03;;
7001;SDS011;3541;53.230;10.518;2023-01-08T11:35:09;2.97;;;2.60;;
7001;SDS011;3541;53.230;10.518;2023-01-08T11:37:42;3.13;;;2.83;;
7001;SDS011;3541;53.230;10.518;2023-01-08T11:40:15;3.50;;;2.57;;
7001;SDS011;3541;53.230;10.518;2023-01-08T11:42:49;3.50;;;2.40;;
7001;SDS011;3541;53.230;10.518;2023-01-08T11:45:29;3.17;;;2.80;;
7001;SDS011;3541;53.230;10.518;2023-01-08T11:48:07;3.23;;;2.67;;
7001;SDS011;3541;53.230;10.518;2023-01-08T11:50:45;4.30;;;3.50;;
7001;SDS011;3541;53.230;10.518;2023-01-08T11:53:22;4.63;;;3.37;;
7001;SDS011;3541;53.230;10.518;2023-01-08T11:55:59;3.40;;;2.80;;
7001;SDS011;3541;53.230;10.518;2023-01-08T11:58:44;3.60;;;2.93;;
7001;SDS011;3541;53.230;10.518;2023-01-08T12:01:24;3.77;;;3.00;;
7001;SDS011;3541;53.230;10.518;2023-01-08T12:04:05;3.60;;;2.70;;
7001;SDS011;3541;53.230;10.518;2023-01-08T12:06:50;3.60;;;2.67;;
7001;SDS011;3541;53.230;10.518;2023-01-08T12:09:26;3.50;;;2.47;;
7001;SDS011;3541;53.230;10.518;2023-01-08T12:12:06;2.50;;;2.20;;
7001;SDS011;3541;53.230;10.518;2023-01-08T12:14:44;2.43;;;2.13;;
7001;SDS011;3541;53.230;10.518;2023-01-08T12:17:34;2.73;;;2.20;;
7001;SDS011;3541;53.230;10.518;2023-01-08T12:20:18;3.13;;;2.33;;
7001;SDS011;3541;53.230;10.518;2023-01-08T12:22:53;3.07;;;2.40;;
7001;SDS011;3541;53.230;10.518;2023-01-08T12:25:33;3.10;;;2.40;;
7001;SDS011;3541;53.230;10.518;2023-01-08T12:28:12;2.80;;;2.03;;
7001;SDS011;3541;53.230;10.518;2023-01-08T12:30:50;2.83;;;1.97;;
7001;SDS011;3541;53.230;10.518;2023-01-08T12:33:32;2.37;;;2.17;;
7001;SDS011;3541;53.230;10.518;2023-01-08T12:36:01;2.10;;;1.90;;
7001;SDS011;3541;53.230;10.518;2023-01-08T12:38:32;1.87;;;1.60;;
7001;SDS011;3541;53.230;10.518;2023-01-08T12:41:04;2.10;;;1.90;;
7001;SDS011;3541;53.230;10.518;2023-01-08T12:43:38;2.33;;;1.70;;
7001;SDS011;3541;53.230;10.518;2023-01-08T12:46:10;2.27;;;1.60;;
7001;SDS011;3541;53.230;10.518;2023-01-08T12:48:40;1.87;;;1.77;;
7001;SDS011;3541;53.230;10.518;2023-01-08T12:51:10;2.73;;;1.53;;
7001;SDS011;3541;53.230;10.518;2023-01-08T12:53:46;2.43;;;1.53;;
7001;SDS011;3541;53.230;10.518;2023-01-08T12:56:22;2.20;;;1.33;;
7001;SDS011;3541;53.230;10.518;2023-01-08T12:59:03;1.93;;;1.50;;
7001;SDS011;3541;53.230;10.518;2023-01-08T13:01:37;6.17;;;3.53;;
7001;SDS011;3541;53.230;10.518;2023-01-08T13:04:09;3.23;;;2.40;;
7001;SDS011;3541;53.230;10.518;2023-01-08T13:06:37;4.30;;;1.70;;
7001;SDS011;3541;53.230;10.518;2023-01-08T13:09:15;3.23;;;1.60;;
7001;SDS011;3541;53.230;10.518;2023-01-08T13:11:50;3.70;;;1.40;;
7001;SDS011;3541;53.230;10.518;2023-01-08T13:14:17;4.30;;;1.50;;
7001;SDS011;3541;53.230;10.518;2023-01-08T13:16:45;2.10;;;1.70;;
7001;SDS011;3541;53.230;10.518;2023-01-08T13:19:22;2.10;;;1.30;;
7001;SDS011;3541;53.230;10.518;2023-01-08T13:21:51;1.47;;;1.37;;
7001;SDS011;3541;53.230;10.518;2023-01-08T13:24:23;3.00;;;1.50;;
7001;SDS011;3541;53.230;10.518;2023-01-08T13:26:55;2.17;;;1.57;;
7001;SDS011;3541;53.230;10.518;2023-01-08T13:29:34;1.43;;;1.33;;
7001;SDS011;3541;53.230;10.518;2023-01-08T13:32:03;1.60;;;1.50;;
7001;SDS011;3541;53.230;10.518;2023-01-08T13:34:45;2.93;;;1.60;;
7001;SDS011;3541;53.230;10.518;2023-01-08T13:37:12;1.87;;;1.40;;
7001;SDS011;3541;53.230;10.518;2023-01-08T13:39:48;1.60;;;1.50;;
7001;SDS011;3541;53.230;10.518;2023-01-08T13:42:23;1.50;;;1.40;;
7001;SDS011;3541;53.230;10.518;2023-01-08T13:44:56;2.33;;;1.50;;
7001;SDS011;3541;53.230;10.518;2023-01-08T13:47:26;1.50;;;1.40;;
7001;SDS011;3541;53.230;10.518;2023-01-08T13:49:56;2.53;;;1.50;;
7001;SDS011;3541;53.230;10.518;2023-01-08T13:52:26;1.80;;;1.40;;
7001;SDS011;3541;53.230;10.518;2023-01-08T13:54:56;1.77;;;1.50;;
7001;SDS011;3541;53.230;10.518;2023-01-08T13:57:26;2.57;;;1.60;;
7001;SDS011;3541;53.230;10.518;2023-01-08T14:00:02;1.67;;;1.53;;
7001;SDS011;3541;53.230;10.518;2023-01-08T14:02:32;3.70;;;1.73;;
7001;SDS011;3541;53.230;10.518;2023-01-08T14:05:11;1.50;;;1.40;;
7001;SDS011;3541;53.230;10.518;2023-01-08T14:07:44;3.53;;;1.60;;
7001;SDS011;3541;53.230;10.518;2023-01-08T14:10:11;2.70;;;1.40;;
7001;SDS011;3541;53.230;10.518;2023-01-08T14:12:41;3.00;;;1.43;;
7001;SDS011;3541;53.230;10.518;2023-01-08T14:15:08;2.20;;;1.70;;
7001;SDS011;3541;53.230;10.518;2023-01-08T14:17:45;3.50;;;1.70;;
7001;SDS011;3541;53.230;10.518;2023-01-08T14:20:11;2.60;;;1.47;;
7001;SDS011;3541;53.230;10.518;2023-01-08T14:22:41;2.13;;;1.47;;
7001;SDS011;3541;53.230;10.518;2023-01-08T14:25:11;1.60;;;1.43;;
7001;SDS011;3541;53.230;10.518;2023-01-08T14:27:45;2.57;;;1.60;;
7001;SDS011;3541;53.230;10.518;2023-01-08T14:30:20;2.67;;;1.57;;
7001;SDS011;3541;53.230;10.518;2023-01-08T14:32:47;3.40;;;1.53;;
7001;SDS011;3541;53.230;10.518;2023-01-08T14:35:15;2.10;;;1.60;;
7001;SDS011;3541;53.230;10.518;2023-01-08T14:37:43;2.43;;;1.70;;
7001;SDS011;3541;53.230;10.518;2023-01-08T14:40:12;1.77;;;1.50;;
7001;SDS011;3541;53.230;10.518;2023-01-08T14:42:40;2.80;;;1.60;;
7001;SDS011;3541;53.230;10.518;2023-01-08T14:45:15;4.93;;;1.70;;
7001;SDS011;3541;53.230;10.518;2023-01-08T14:47:44;2.60;;;1.90;;
7001;SDS011;3541;53.230;10.518;2023-01-08T14:50:17;3.67;;;1.50;;
7001;SDS011;3541;53.230;10.518;2023-01-08T14:52:46;1.43;;;1.33;;
7001;SDS011;3541;53.230;10.518;2023-01-08T14:55:14;2.23;;;1.73;;
7001;SDS011;3541;53.230;10.518;2023-01-08T14:57:43;2.17;;;1.53;;
7001;SDS011;3541;53.230;10.518;2023-01-08T15:00:16;3.33;;;1.50;;
7001;SDS011;3541;53.230;10.518;2023-01-08T15:02:46;4.00;;;1.90;;
7001;SDS011;3541;53.230;10.518;2023-01-08T15:05:15;1.90;;;1.80;;
7001;SDS011;3541;53.230;10.518;2023-01-08T15:07:53;4.23;;;1.80;;
7001;SDS011;3541;53.230;10.518;2023-01-08T15:10:32;2.93;;;1.70;;
7001;SDS011;3541;53.230;10.518;2023-01-08T15:13:01;2.63;;;1.83;;
7001;SDS011;3541;53.230;10.518;2023-01-08T15:15:32;3.40;;;2.03;;